American Falls, ID

7:17 PM MST on December 24, 2014 (GMT -0700)
MesoWest Aberdeen ID US AGRIMET | Change Station
CLOSE
Current Station
Personal Weather Station
Location: Aberdeen, ID
Elevation: 4399 ft
Nearby Weather Stations
Active Advisory: Winter Storm Warning

Elev 4399 ft 42.95 °N, 112.83 °W | Updated 42 minutes ago

Overcast
Overcast
36 °F
Feels Like 30 °F
N
8
Wind Variable Wind from South
Gusts 11.0 mph

Today
High -- | Low -- °F
--% Chance of Precip.
Yesterday
High -- | Low -- °F
Precip. -- in
8:00 AM 5:02 PM
Waxing Crescent, 12% visible
Pressure 29.48 in
Visibility 10.0 miles
Clouds Few 3200 ft
Mostly Cloudy 4600 ft
Overcast 5500 ft
Windchill 30 °F
Dew Point 28 °F
Humidity 71%
Rainfall -999.00 in
Snow Depth Not available.
UV 0 out of 12
Pollen .10 out of 12
Air Quality Not available.
Flu Activity Not available.
METAR KPIH 250153Z 16010KT 10SM FEW032 BKN046 OVC055 04/M02 A2947 RMK AO2 SLP982 T00441022

More Conditions Fewer Conditions

Pressure 29.48 in
Visibility 10.0 miles
Clouds Few 3200 ft
Mostly Cloudy 4600 ft
Overcast 5500 ft
Windchill 30 °F
Dew Point 28 °F
Humidity 71%
Rainfall -999.00 in
Snow Depth Not available.
UV 0 out of 12
Pollen .10 out of 12
Air Quality Not available.
Flu Activity Not available.
METAR KPIH 250153Z 16010KT 10SM FEW032 BKN046 OVC055 04/M02 A2947 RMK AO2 SLP982 T00441022

More Conditions Fewer Conditions

10-Day Weather Forecast

Almanac

Astronomy

Dec. 24, 2014 Rise Set
Actual Time
Civil Twilight
Nautical Twilight
Astronomical Twilight
Moon
Length of Visible Light
Length of Day
Tomorrow will be .
, % of the Moon is Illuminated

Today's Extremes

State Highs State Lows

Community

WunderPhotos

Upload Photos

1,780,210 photos uploaded!

WunderBlogs® & News

Nearby

Air Quality

  Air Quality AQ Index Pollutant
Not available.

Snow Depth

Station Depth Elevation

Earthquake Activity

City Distance Mag. Time & Date
Minimum magnitude displayed is 2.5.

Coastal Water Temperatures

Place Temperature

Nearby Weather Stations